WetterOnline ( https://www.wetteronline.de )

Wetter aktuell Bad Homburg

Aktuelles Wetter: Offenbach (119m)

6-stündlich | Neueste Meldungen
Ortszeit Temperatur Wetter
Mi, 25.11. 13:00 3.7° C bedeckt
Mi, 25.11. 7:00 4.6° C bedeckt
Mi, 25.11. 1:00 5.5° C bedeckt
Di, 24.11. 19:00 5.6° C bedeckt
Di, 24.11. 13:00 4.9° C bedeckt
Di, 24.11. 7:00 3.3° C bedeckt
Di, 24.11. 1:00 4.4° C bedeckt
Mo, 23.11. 19:00 5.7° C wolkig
Ortszeit Temperatur Wetter
Mi, 25.11. 17:30 2.6° C fast wolkenlos
Mi, 25.11. 17:20 2.6° C fast wolkenlos
Mi, 25.11. 17:10 3.1° C wolkenlos
Mi, 25.11. 17:00 3.6° C wolkenlos
Mi, 25.11. 16:50 3.6° C wolkenlos
Mi, 25.11. 16:40 3.9° C wolkenlos
Mi, 25.11. 16:30 4.3° C wolkenlos
Mi, 25.11. 16:00 5.1° C leicht bewölkt
Mi, 25.11. 15:30 5.6° C bewölkt
Mi, 25.11. 15:00 6.2° C bedeckt
Mi, 25.11. 14:30 5.6° C bewölkt
Ortszeit Relative Feuchte Sichtweite
Mi, 25.11. 13:00 86% 9 km
Mi, 25.11. 7:00 86% 10 km
Mi, 25.11. 1:00 83% 15 km
Di, 24.11. 19:00 86% 18 km
Di, 24.11. 13:00 87% 23 km
Di, 24.11. 7:00 96% 6 km
Di, 24.11. 1:00 97% 1.2 km
Mo, 23.11. 19:00 94% 6 km
Ortszeit Relative Feuchte Sichtweite
Mi, 25.11. 17:30 90% 8 km
Mi, 25.11. 17:20 90% -
Mi, 25.11. 17:10 90% -
Mi, 25.11. 17:00 87% 13 km
Mi, 25.11. 16:50 87% -
Mi, 25.11. 16:40 86% -
Mi, 25.11. 16:30 83% 14 km
Mi, 25.11. 16:00 80% 18 km
Mi, 25.11. 15:30 78% 21 km
Mi, 25.11. 15:00 76% 22 km
Mi, 25.11. 14:30 76% 17 km
Ortszeit Niederschlagsmenge Niederschlagsart
Mi, 25.11. 13:00 0.0 l/m2 in 6 Std. -
Mi, 25.11. 7:00 0.0 l/m2 in 12 Std. -
Mi, 25.11. 1:00 0.0 l/m2 in 6 Std. -
Di, 24.11. 19:00 0.0 l/m2 in 12 Std. -
Di, 24.11. 13:00 0.0 l/m2 in 6 Std. -
Di, 24.11. 7:00 0.0 l/m2 in 12 Std. -
Di, 24.11. 1:00 0.0 l/m2 in 6 Std. -
Mo, 23.11. 19:00 0.1 l/m2 in 12 Std. -
Ortszeit Niederschlagsmenge Niederschlagsart
Mi, 25.11. 17:30 0.0 l/m2 in 1 Std. -
Mi, 25.11. 17:20 keine Meldung -
Mi, 25.11. 17:10 keine Meldung -
Mi, 25.11. 17:00 0.0 l/m2 in 1 Std. -
Mi, 25.11. 16:50 keine Meldung -
Mi, 25.11. 16:40 keine Meldung -
Mi, 25.11. 16:30 0.0 l/m2 in 1 Std. -
Mi, 25.11. 16:00 0.0 l/m2 in 1 Std. -
Mi, 25.11. 15:30 0.0 l/m2 in 1 Std. -
Mi, 25.11. 15:00 0.0 l/m2 in 1 Std. -
Mi, 25.11. 14:30 0.0 l/m2 in 1 Std. -
Ortszeit Stärke Spitze Richtung
km/h Bft. km/h Grad Sektor
Mi, 25.11. 13:00 7 2 18 250° W
Mi, 25.11. 7:00 11 2 18 170° S
Mi, 25.11. 1:00 9 2 15 140° SO
Di, 24.11. 19:00 4 1 18 130° SO
Di, 24.11. 13:00 7 2 25 170° S
Di, 24.11. 7:00 7 2 17 70° O
Di, 24.11. 1:00 6 1 13 140° SO
Mo, 23.11. 19:00 0 0 11 - -
Ortszeit Stärke Spitze Richtung
km/h Bft. km/h Grad Sektor
Mi, 25.11. 17:30 4 1 7 120° SO
Mi, 25.11. 17:20 4 1 - 120° SO
Mi, 25.11. 17:10 4 1 - 130° SO
Mi, 25.11. 17:00 4 1 14 160° S
Mi, 25.11. 16:50 4 1 - 160° S
Mi, 25.11. 16:40 7 2 - 160° S
Mi, 25.11. 16:30 9 2 15 140° SO
Mi, 25.11. 16:00 7 2 15 150° SO
Mi, 25.11. 15:30 9 2 15 150° SO
Mi, 25.11. 15:00 7 2 11 140° SO
Mi, 25.11. 14:30 4 1 7 290° W
Ortszeit Untergrenze Bedeckung Gattung
total tief tief mittel hoch
Mi, 25.11. 13:00 180 m 8/8 8/8 - - -
Mi, 25.11. 7:00 240 m 8/8 8/8 - - -
Mi, 25.11. 1:00 420 m 8/8 8/8 - - -
Di, 24.11. 19:00 270 m 8/8 8/8 - - -
Di, 24.11. 13:00 210 m 8/8 8/8 - - -
Di, 24.11. 7:00 60 m 8/8 8/8 - - -
Di, 24.11. 1:00 30 m 8/8 8/8 - - -
Mo, 23.11. 19:00 300 m 5/8 5/8 - - -
Ortszeit Bedeckungsgrad in Achtel und Wolkenuntergrenze
Mi, 25.11. 17:30 1(9000m)
Mi, 25.11. 17:20 1(9000m)
Mi, 25.11. 17:10 keine Wolken
Mi, 25.11. 17:00 keine Wolken
Mi, 25.11. 16:50 keine Wolken
Mi, 25.11. 16:40 keine Wolken
Mi, 25.11. 16:30 keine Wolken
Mi, 25.11. 16:00 3(480m)
Mi, 25.11. 15:30 7(480m)
Mi, 25.11. 15:00 8(480m)
Mi, 25.11. 14:30 6(420m) 7(9000m)
Ortszeit Luftdruck NN (hPa) Tendenz (hPa in 3 Std.)
Mi, 25.11. 13:00 1022 - 0,2
Mi, 25.11. 7:00 1021 - 0,2
Mi, 25.11. 1:00 1022 - 0,9
Di, 24.11. 19:00 1024 - 0,8
Di, 24.11. 13:00 1026 - 1,7
Di, 24.11. 7:00 1028 - 0,5
Di, 24.11. 1:00 1030 - 0,9
Mo, 23.11. 19:00 1031 + 0,4
Ortszeit Luftdruck NN (hPa) Tendenz (hPa in 3 Std.)
Mi, 25.11. 17:30 1022 + 0,5
Mi, 25.11. 17:20 1022 keine Meldung
Mi, 25.11. 17:10 1022 keine Meldung
Mi, 25.11. 17:00 1022 + 0,3
Mi, 25.11. 16:50 1022 keine Meldung
Mi, 25.11. 16:40 1022 keine Meldung
Mi, 25.11. 16:30 1022 - 0,1
Mi, 25.11. 16:00 1021 - 0,3
Mi, 25.11. 15:30 1021 - 0,6
Mi, 25.11. 15:00 1021 - 0,7
Mi, 25.11. 14:30 1021 - 0,8
Ortszeit Schneehöhe (cm)
Mi, 25.11. 13:00 0
Mi, 25.11. 7:00 0
Mi, 25.11. 1:00 0
Di, 24.11. 19:00 0
Di, 24.11. 13:00 0
Di, 24.11. 7:00 0
Di, 24.11. 1:00 0
Mo, 23.11. 19:00 0
Ortszeit Schneehöhe (cm)
Mi, 25.11. 17:30 0
Mi, 25.11. 17:20 0
Mi, 25.11. 17:10 0
Mi, 25.11. 17:00 0
Mi, 25.11. 16:50 0
Mi, 25.11. 16:40 0
Mi, 25.11. 16:30 0
Mi, 25.11. 16:00 0
Mi, 25.11. 15:30 0
Mi, 25.11. 15:00 0
Mi, 25.11. 14:30 0
Link zu dieser Seite / Seite empfehlen

Das Wetter in ...